createdAt,value
2023-04-12T00:00:48.422Z,2.30
2023-04-12T00:03:21.455Z,2.30
2023-04-12T00:05:54.467Z,2.20
2023-04-12T00:08:26.701Z,2.20
2023-04-12T00:10:53.290Z,2.10
2023-04-12T00:13:19.798Z,2.10
2023-04-12T00:15:46.311Z,2.10
2023-04-12T00:18:12.911Z,2.10
2023-04-12T00:20:39.530Z,2.00
2023-04-12T00:23:06.845Z,2.10
2023-04-12T00:25:33.430Z,2.00
2023-04-12T00:28:00.201Z,2.00
2023-04-12T00:30:26.700Z,2.00
2023-04-12T00:32:53.433Z,1.90
2023-04-12T00:35:20.090Z,1.80
2023-04-12T00:37:46.576Z,1.80
2023-04-12T00:40:13.145Z,1.80
2023-04-12T00:42:39.694Z,1.80
2023-04-12T00:45:07.198Z,1.70
2023-04-12T00:47:37.226Z,1.80
2023-04-12T00:50:08.357Z,1.70
2023-04-12T00:52:35.698Z,1.80
2023-04-12T00:55:07.234Z,1.80
2023-04-12T00:57:38.495Z,1.80
2023-04-12T01:00:12.384Z,1.80
2023-04-12T01:02:41.357Z,1.70
2023-04-12T01:05:09.375Z,1.70
2023-04-12T01:08:05.221Z,1.70
2023-04-12T01:11:02.560Z,1.60
2023-04-12T01:14:00.277Z,1.60
2023-04-12T01:16:40.777Z,1.50
2023-04-12T01:19:37.024Z,1.40
2023-04-12T01:22:16.970Z,1.50
2023-04-12T01:24:55.953Z,1.50
2023-04-12T01:27:38.959Z,1.40
2023-04-12T01:30:08.013Z,1.50
2023-04-12T01:32:36.744Z,1.40
2023-04-12T01:35:04.478Z,1.40
2023-04-12T01:37:32.561Z,1.40
2023-04-12T01:40:00.388Z,1.30
2023-04-12T01:42:32.497Z,1.30
2023-04-12T01:44:58.989Z,1.30
2023-04-12T01:47:25.799Z,1.20
2023-04-12T01:50:19.903Z,1.20
2023-04-12T01:52:53.931Z,1.20
2023-04-12T01:55:24.866Z,1.20
2023-04-12T01:57:53.317Z,1.20
2023-04-12T02:00:20.373Z,1.20
2023-04-12T02:02:47.543Z,1.10
2023-04-12T02:05:15.244Z,1.10
2023-04-12T02:07:42.429Z,1.10
2023-04-12T02:10:14.054Z,1.10
2023-04-12T02:12:40.760Z,1.00
2023-04-12T02:15:08.171Z,1.00
2023-04-12T02:17:37.207Z,0.90
2023-04-12T02:20:09.741Z,0.90
2023-04-12T02:22:36.476Z,0.90
2023-04-12T02:25:06.387Z,0.80
2023-04-12T02:27:32.918Z,0.80
2023-04-12T02:29:59.719Z,0.80
2023-04-12T02:32:26.273Z,0.80
2023-04-12T02:34:52.969Z,0.80
2023-04-12T02:37:22.000Z,0.80
2023-04-12T02:39:48.495Z,0.70
2023-04-12T02:42:14.983Z,0.60
2023-04-12T02:44:43.456Z,0.70
2023-04-12T02:47:09.899Z,0.70
2023-04-12T02:49:36.707Z,0.60
2023-04-12T02:52:03.974Z,0.60
2023-04-12T02:54:30.574Z,0.70
2023-04-12T02:56:57.258Z,0.60
2023-04-12T02:59:25.277Z,0.50
2023-04-12T03:01:52.089Z,0.50
2023-04-12T03:04:18.871Z,0.50
2023-04-12T03:06:52.617Z,0.50
2023-04-12T03:09:19.368Z,0.50
2023-04-12T03:11:48.425Z,0.50
2023-04-12T03:14:16.632Z,0.50
2023-04-12T03:16:43.265Z,0.50
2023-04-12T03:19:09.885Z,0.50
2023-04-12T03:21:37.612Z,0.40
2023-04-12T03:24:07.275Z,0.40
2023-04-12T03:26:34.222Z,0.30
2023-04-12T03:29:05.155Z,0.40
2023-04-12T03:31:31.809Z,0.40
2023-04-12T03:33:58.528Z,0.30
2023-04-12T03:36:25.152Z,0.20
2023-04-12T03:38:51.955Z,0.30
2023-04-12T03:41:18.417Z,0.30
2023-04-12T03:43:44.984Z,0.30
2023-04-12T03:46:11.541Z,0.40
2023-04-12T03:48:38.182Z,0.30
2023-04-12T03:51:07.672Z,0.30
2023-04-12T03:53:34.861Z,0.30
2023-04-12T03:56:01.402Z,0.30
2023-04-12T03:58:27.961Z,0.30
2023-04-12T04:00:55.927Z,0.20
2023-04-12T04:03:27.109Z,0.20
2023-04-12T04:05:57.062Z,0.20
2023-04-12T04:08:23.886Z,0.20
2023-04-12T04:10:53.866Z,0.20
2023-04-12T04:13:20.514Z,0.20
2023-04-12T04:15:58.894Z,0.10
2023-04-12T04:18:25.474Z,0.10
2023-04-12T04:20:52.181Z,0.10
2023-04-12T04:23:18.841Z,0.20
2023-04-12T04:25:46.293Z,0.20
2023-04-12T04:28:12.981Z,0.30
2023-04-12T04:30:39.621Z,0.30
2023-04-12T04:33:07.248Z,0.20
2023-04-12T04:35:33.949Z,0.20
2023-04-12T04:38:03.343Z,0.20
2023-04-12T04:40:32.520Z,0.20
2023-04-12T04:42:59.450Z,0.30
2023-04-12T04:45:30.686Z,0.30
2023-04-12T04:47:57.487Z,0.30
2023-04-12T04:50:26.547Z,0.30
2023-04-12T04:52:53.388Z,0.30
2023-04-12T04:55:21.525Z,0.40
2023-04-12T04:57:48.486Z,0.40
2023-04-12T05:00:16.550Z,0.50
2023-04-12T05:02:43.740Z,0.50
2023-04-12T05:05:13.506Z,0.40
2023-04-12T05:07:40.436Z,0.50
2023-04-12T05:10:07.593Z,0.50
2023-04-12T05:12:34.111Z,0.50
2023-04-12T05:15:11.202Z,0.60
2023-04-12T05:17:38.814Z,0.70
2023-04-12T05:20:08.143Z,0.70
2023-04-12T05:22:35.751Z,0.80
2023-04-12T05:25:03.576Z,0.90
2023-04-12T05:27:30.968Z,0.90
2023-04-12T05:29:58.027Z,1.00
2023-04-12T05:32:26.544Z,1.10
2023-04-12T05:34:53.078Z,1.20
2023-04-12T05:37:19.901Z,1.40
2023-04-12T05:39:46.422Z,1.40
2023-04-12T05:42:12.883Z,1.50
2023-04-12T05:44:39.889Z,1.60
2023-04-12T05:47:06.347Z,1.60
2023-04-12T05:49:36.033Z,1.70
2023-04-12T05:52:03.854Z,1.90
2023-04-12T05:54:30.357Z,2.00
2023-04-12T05:56:57.271Z,2.10
2023-04-12T05:59:23.825Z,2.30
2023-04-12T06:01:50.580Z,2.40
2023-04-12T06:04:17.637Z,2.60
2023-04-12T06:06:44.389Z,3.70
2023-04-12T06:09:15.394Z,4.60
2023-04-12T06:11:42.254Z,4.60
2023-04-12T06:14:10.604Z,4.70
2023-04-12T06:16:40.015Z,6.50
2023-04-12T06:19:08.430Z,8.20
2023-04-12T06:21:35.631Z,10.10
2023-04-12T06:24:02.121Z,11.50
2023-04-12T06:26:34.613Z,13.30
2023-04-12T06:29:06.032Z,13.80
2023-04-12T06:31:33.008Z,15.70
2023-04-12T06:34:01.454Z,15.80
2023-04-12T06:36:28.133Z,16.70
2023-04-12T06:38:55.689Z,16.30
2023-04-12T06:41:22.380Z,18.40
2023-04-12T06:43:48.912Z,19.20
2023-04-12T06:46:16.078Z,17.20
2023-04-12T06:48:42.570Z,19.00
2023-04-12T06:51:10.553Z,21.00
2023-04-12T06:53:39.282Z,20.00
2023-04-12T06:56:06.195Z,22.60
2023-04-12T06:58:32.719Z,22.00
2023-04-12T07:01:06.749Z,18.90
2023-04-12T07:03:33.870Z,21.70
2023-04-12T07:06:17.294Z,19.80
2023-04-12T07:08:48.383Z,20.60
2023-04-12T07:11:21.410Z,23.00
2023-04-12T07:13:49.112Z,25.40
2023-04-12T07:16:15.819Z,24.80
2023-04-12T07:18:44.329Z,24.50
2023-04-12T07:21:14.358Z,24.70
2023-04-12T07:23:47.500Z,25.10
2023-04-12T07:26:14.182Z,22.60
2023-04-12T07:28:40.954Z,27.30
2023-04-12T07:31:07.676Z,26.90
2023-04-12T07:33:36.127Z,22.80
2023-04-12T07:36:03.958Z,25.50
2023-04-12T07:38:30.697Z,24.90
2023-04-12T07:40:57.258Z,23.90
2023-04-12T07:43:23.803Z,25.20
2023-04-12T07:45:50.560Z,23.00
2023-04-12T07:48:17.342Z,24.30
2023-04-12T07:50:43.901Z,23.70
2023-04-12T07:53:25.124Z,24.00
2023-04-12T07:55:51.686Z,20.70
2023-04-12T07:58:19.495Z,22.80
2023-04-12T08:00:46.790Z,25.50
2023-04-12T08:03:18.258Z,26.00
2023-04-12T08:05:45.310Z,26.90
2023-04-12T08:08:12.067Z,25.50
2023-04-12T08:10:44.575Z,26.30
2023-04-12T08:13:11.118Z,26.30
2023-04-12T08:15:43.171Z,24.00
2023-04-12T08:18:12.547Z,24.90
2023-04-12T08:20:44.239Z,26.90
2023-04-12T08:23:11.974Z,23.60
2023-04-12T08:25:39.038Z,25.70
2023-04-12T08:28:08.152Z,25.10
2023-04-12T08:30:34.932Z,24.80
2023-04-12T08:33:02.171Z,25.20
2023-04-12T08:35:36.917Z,26.70
2023-04-12T08:38:07.582Z,25.70
2023-04-12T08:40:34.211Z,25.50
2023-04-12T08:43:09.997Z,26.60
2023-04-12T08:45:40.028Z,26.10
2023-04-12T08:48:06.780Z,25.00
2023-04-12T08:50:33.477Z,25.10
2023-04-12T08:53:00.030Z,26.60
2023-04-12T08:55:26.558Z,26.40
2023-04-12T08:57:56.073Z,22.70
2023-04-12T09:00:22.830Z,23.20
2023-04-12T09:02:49.656Z,24.20
2023-04-12T09:05:16.459Z,23.60
2023-04-12T09:07:43.025Z,25.70
2023-04-12T09:10:09.782Z,23.30
2023-04-12T09:12:45.227Z,21.90
2023-04-12T09:15:13.856Z,23.80
2023-04-12T09:17:41.959Z,23.40
2023-04-12T09:20:28.829Z,20.70
2023-04-12T09:22:55.893Z,21.30
2023-04-12T09:25:40.057Z,24.20
2023-04-12T09:28:27.173Z,24.10
2023-04-12T09:30:55.589Z,24.90
2023-04-12T09:33:32.096Z,26.40
2023-04-12T09:36:03.858Z,27.50
2023-04-12T09:38:31.449Z,29.00
2023-04-12T09:40:58.261Z,26.50
2023-04-12T09:43:45.057Z,29.50
2023-04-12T09:46:13.558Z,26.80
2023-04-12T09:48:41.262Z,24.90
2023-04-12T09:51:08.437Z,23.00
2023-04-12T09:53:36.733Z,22.30
2023-04-12T09:56:05.235Z,24.60
2023-04-12T09:58:34.023Z,22.30
2023-04-12T10:01:03.732Z,23.00
2023-04-12T10:03:30.492Z,25.30
2023-04-12T10:05:57.606Z,22.80
2023-04-12T10:08:24.810Z,22.60
2023-04-12T10:10:57.126Z,21.70
2023-04-12T10:13:26.074Z,23.40
2023-04-12T10:15:53.853Z,22.50
2023-04-12T10:18:20.830Z,25.20
2023-04-12T10:20:48.021Z,23.50
2023-04-12T10:23:14.707Z,25.20
2023-04-12T10:25:43.724Z,25.30
2023-04-12T10:28:15.592Z,24.40
2023-04-12T10:30:42.712Z,23.60
2023-04-12T10:33:09.235Z,22.80
2023-04-12T10:35:49.472Z,22.90
2023-04-12T10:38:16.830Z,25.00
2023-04-12T10:41:14.512Z,24.70
2023-04-12T10:43:42.682Z,23.10
2023-04-12T10:46:29.362Z,23.20
2023-04-12T10:48:56.484Z,22.80
2023-04-12T10:51:27.258Z,20.40
2023-04-12T10:54:14.079Z,20.40
2023-04-12T10:56:42.627Z,21.20
2023-04-12T10:59:13.301Z,20.00
2023-04-12T11:01:41.083Z,21.40
2023-04-12T11:04:20.462Z,21.00
2023-04-12T11:06:54.935Z,19.50
2023-04-12T11:09:28.722Z,20.70
2023-04-12T11:12:04.433Z,19.90
2023-04-12T11:14:39.430Z,20.60
2023-04-12T11:17:06.551Z,20.90
2023-04-12T11:19:33.828Z,20.40
2023-04-12T11:22:02.385Z,20.80
2023-04-12T11:24:29.255Z,20.90
2023-04-12T11:26:59.365Z,20.40
2023-04-12T11:29:26.908Z,20.20
2023-04-12T11:31:55.078Z,21.00
2023-04-12T11:34:22.248Z,21.60
2023-04-12T11:36:53.327Z,21.20
2023-04-12T11:39:21.462Z,21.10
2023-04-12T11:41:52.080Z,21.70
2023-04-12T11:44:19.952Z,19.50
2023-04-12T11:46:46.522Z,19.20
2023-04-12T11:49:19.258Z,17.90
2023-04-12T11:51:48.989Z,18.20
2023-04-12T11:54:16.180Z,17.80
2023-04-12T11:56:43.115Z,18.00
2023-04-12T11:59:13.091Z,17.10
2023-04-12T12:01:39.564Z,18.00
2023-04-12T12:04:06.735Z,17.90
2023-04-12T12:06:33.647Z,18.20
2023-04-12T12:09:00.779Z,18.20
2023-04-12T12:11:27.856Z,17.80
2023-04-12T12:13:56.243Z,17.80
2023-04-12T12:16:28.581Z,18.20
2023-04-12T12:18:56.310Z,18.00
2023-04-12T12:21:23.550Z,17.60
2023-04-12T12:23:50.228Z,17.50
2023-04-12T12:26:27.281Z,17.30
2023-04-12T12:28:55.568Z,17.50
2023-04-12T12:31:28.337Z,17.30
2023-04-12T12:33:57.320Z,17.30
2023-04-12T12:36:38.890Z,17.70
2023-04-12T12:39:13.155Z,17.60
2023-04-12T12:41:40.722Z,18.00
2023-04-12T12:44:11.502Z,17.20
2023-04-12T12:49:07.536Z,17.10
2023-04-12T12:51:37.404Z,16.90
2023-04-12T12:54:03.877Z,17.40
2023-04-12T12:56:30.568Z,17.10
2023-04-12T12:58:57.345Z,16.90
2023-04-12T13:01:24.242Z,17.00
2023-04-12T13:03:51.105Z,17.10
2023-04-12T13:06:18.181Z,17.30
2023-04-12T13:08:44.758Z,17.10
2023-04-12T13:11:11.264Z,17.20
2023-04-12T13:13:40.086Z,17.10
2023-04-12T13:16:07.044Z,17.50
2023-04-12T13:18:33.604Z,17.60
2023-04-12T13:21:00.156Z,17.60
2023-04-12T13:23:26.712Z,17.80
2023-04-12T13:25:53.304Z,17.50
2023-04-12T13:28:20.849Z,17.90
2023-04-12T13:30:48.915Z,17.60
2023-04-12T13:33:20.104Z,17.50
2023-04-12T13:35:48.465Z,17.10
2023-04-12T13:38:14.922Z,17.10
2023-04-12T13:40:41.542Z,17.30
2023-04-12T13:43:08.752Z,17.10
2023-04-12T13:45:36.106Z,17.10
2023-04-12T13:48:03.149Z,16.90
2023-04-12T13:50:29.920Z,17.10
2023-04-12T13:52:59.791Z,17.10
2023-04-12T13:55:26.294Z,16.90
2023-04-12T13:57:54.051Z,16.80
2023-04-12T14:00:21.349Z,16.60
2023-04-12T14:02:48.088Z,16.30
2023-04-12T14:05:15.349Z,16.30
2023-04-12T14:07:41.913Z,16.40
2023-04-12T14:10:08.994Z,16.20
2023-04-12T14:12:36.121Z,16.40
2023-04-12T14:15:03.156Z,16.00
2023-04-12T14:17:32.769Z,16.10
2023-04-12T14:20:00.151Z,16.10
2023-04-12T14:22:26.781Z,16.00
2023-04-12T14:24:53.309Z,16.00
2023-04-12T14:27:21.265Z,15.80
2023-04-12T14:29:48.124Z,16.10
2023-04-12T14:32:15.134Z,16.20
2023-04-12T14:34:43.415Z,15.90
2023-04-12T14:37:10.206Z,15.80
2023-04-12T14:39:36.819Z,15.80
2023-04-12T14:42:03.871Z,15.80
2023-04-12T14:44:31.377Z,15.50
2023-04-12T14:46:58.283Z,15.10
2023-04-12T14:49:25.610Z,15.20
2023-04-12T14:51:52.147Z,15.00
2023-04-12T14:54:18.686Z,14.90
2023-04-12T14:56:52.495Z,14.90
2023-04-12T14:59:21.760Z,15.10
2023-04-12T15:01:48.500Z,14.90
2023-04-12T15:04:15.386Z,14.70
2023-04-12T15:06:42.742Z,14.70
2023-04-12T15:09:10.999Z,14.60
2023-04-12T15:11:38.468Z,14.60
2023-04-12T15:14:06.726Z,14.60
2023-04-12T15:16:34.961Z,14.50
2023-04-12T15:19:07.823Z,14.20
2023-04-12T15:21:38.067Z,13.90
2023-04-12T15:24:05.040Z,13.80
2023-04-12T15:26:31.736Z,13.90
2023-04-12T15:29:00.245Z,13.70
2023-04-12T15:31:27.132Z,13.80
2023-04-12T15:33:53.845Z,13.50
2023-04-12T15:36:21.865Z,13.20
2023-04-12T15:38:48.350Z,13.10
2023-04-12T15:41:14.888Z,13.00
2023-04-12T15:43:45.273Z,13.10
2023-04-12T15:46:13.628Z,13.10
2023-04-12T15:48:40.982Z,12.90
2023-04-12T15:51:07.534Z,12.90
2023-04-12T15:53:34.152Z,13.00
2023-04-12T15:56:00.588Z,13.00
2023-04-12T15:58:27.269Z,12.80
2023-04-12T16:00:54.448Z,12.60
2023-04-12T16:03:23.814Z,12.50
2023-04-12T16:05:53.625Z,12.40
2023-04-12T16:08:21.948Z,12.50
2023-04-12T16:10:49.681Z,12.40
2023-04-12T16:13:16.291Z,12.50
2023-04-12T16:15:42.897Z,12.50
2023-04-12T16:18:09.637Z,12.40
2023-04-12T16:20:36.173Z,12.20
2023-04-12T16:23:09.156Z,12.40
2023-04-12T16:25:36.410Z,12.30
2023-04-12T16:28:03.536Z,12.30
2023-04-12T16:30:32.061Z,12.40
2023-04-12T16:32:58.847Z,12.20
2023-04-12T16:35:25.862Z,12.20
2023-04-12T16:37:52.696Z,12.10
2023-04-12T16:40:26.454Z,12.20
2023-04-12T16:42:52.957Z,12.30
2023-04-12T16:45:22.446Z,12.40
2023-04-12T16:47:51.218Z,12.30
2023-04-12T16:50:17.969Z,12.20
2023-04-12T16:52:44.557Z,12.30
2023-04-12T16:55:12.217Z,12.40
2023-04-12T16:57:40.846Z,12.40
2023-04-12T17:00:22.311Z,12.30
2023-04-12T17:02:53.773Z,12.20
2023-04-12T17:05:22.187Z,12.10
2023-04-12T17:07:55.080Z,12.00
2023-04-12T17:10:26.224Z,12.10
2023-04-12T17:13:02.233Z,12.10
2023-04-12T17:15:30.008Z,12.00
2023-04-12T17:18:06.174Z,11.90
2023-04-12T17:20:33.308Z,11.90
2023-04-12T17:23:00.308Z,12.10
2023-04-12T17:25:30.153Z,11.80
2023-04-12T17:28:00.730Z,11.80
2023-04-12T17:30:27.499Z,11.80
2023-04-12T17:32:54.629Z,11.60
2023-04-12T17:35:21.193Z,11.70
2023-04-12T17:37:48.135Z,11.50
2023-04-12T17:40:15.398Z,11.70
2023-04-12T17:42:43.405Z,11.60
2023-04-12T17:45:18.351Z,11.70
2023-04-12T17:47:44.878Z,11.70
2023-04-12T17:50:14.703Z,11.60
2023-04-12T17:52:42.706Z,11.60
2023-04-12T17:55:14.707Z,11.60
2023-04-12T17:57:44.784Z,11.60
2023-04-12T18:00:12.228Z,11.60
2023-04-12T18:02:39.300Z,11.60
2023-04-12T18:05:07.730Z,11.60
2023-04-12T18:07:34.477Z,11.60
2023-04-12T18:10:02.344Z,11.50
2023-04-12T18:12:28.996Z,11.50
2023-04-12T18:15:02.865Z,11.50
2023-04-12T18:17:29.648Z,11.60
2023-04-12T18:19:56.291Z,11.40
2023-04-12T18:22:22.769Z,11.50
2023-04-12T18:24:53.463Z,11.40
2023-04-12T18:27:20.005Z,11.40
2023-04-12T18:29:46.484Z,11.50
2023-04-12T18:32:13.388Z,11.50
2023-04-12T18:34:39.957Z,11.40
2023-04-12T18:37:06.691Z,11.40
2023-04-12T18:39:36.596Z,11.40
2023-04-12T18:42:06.566Z,11.50
2023-04-12T18:44:37.141Z,11.40
2023-04-12T18:47:03.915Z,11.40
2023-04-12T18:49:30.695Z,11.40
2023-04-12T18:51:58.829Z,11.40
2023-04-12T18:54:27.854Z,11.30
2023-04-12T18:56:55.022Z,11.40
2023-04-12T18:59:22.370Z,11.40
2023-04-12T19:01:48.931Z,11.50
2023-04-12T19:04:18.192Z,11.40
2023-04-12T19:06:45.499Z,11.40
2023-04-12T19:09:12.068Z,11.40
2023-04-12T19:11:38.574Z,11.40
2023-04-12T19:14:08.328Z,11.50
2023-04-12T19:16:35.496Z,11.50
2023-04-12T19:19:05.748Z,11.40
2023-04-12T19:21:33.781Z,11.40
2023-04-12T19:24:00.781Z,11.40
2023-04-12T19:26:30.186Z,11.20
2023-04-12T19:28:58.752Z,11.10
2023-04-12T19:31:25.979Z,11.10
2023-04-12T19:33:54.948Z,11.00
2023-04-12T19:36:24.667Z,11.00
2023-04-12T19:38:52.415Z,10.90
2023-04-12T19:41:20.559Z,10.90
2023-04-12T19:43:47.992Z,10.90
2023-04-12T19:46:14.550Z,10.90
2023-04-12T19:48:41.798Z,10.90
2023-04-12T19:51:08.335Z,11.00
2023-04-12T19:53:35.395Z,10.90
2023-04-12T19:56:04.282Z,10.90
2023-04-12T19:58:32.095Z,10.80
2023-04-12T20:01:02.245Z,10.70
2023-04-12T20:03:31.635Z,10.80
2023-04-12T20:05:59.419Z,10.80
2023-04-12T20:08:27.488Z,10.80
2023-04-12T20:10:57.216Z,10.70
2023-04-12T20:13:41.629Z,10.60
2023-04-12T20:16:15.476Z,10.60
2023-04-12T20:18:42.277Z,10.60
2023-04-12T20:21:13.709Z,10.50
2023-04-12T20:23:41.118Z,10.40
2023-04-12T20:26:09.049Z,10.50
2023-04-12T20:28:38.740Z,10.50
2023-04-12T20:31:06.122Z,10.50
2023-04-12T20:33:33.865Z,10.50
2023-04-12T20:36:03.623Z,10.50
2023-04-12T20:38:30.781Z,10.60
2023-04-12T20:40:58.096Z,10.50
2023-04-12T20:43:26.957Z,10.60
2023-04-12T20:45:53.870Z,10.50
2023-04-12T20:48:20.723Z,10.60
2023-04-12T20:50:47.230Z,10.60
2023-04-12T20:53:15.853Z,10.50
2023-04-12T20:55:42.651Z,10.50
2023-04-12T20:58:09.363Z,10.40
2023-04-12T21:00:35.957Z,10.30
2023-04-12T21:03:02.848Z,10.20
2023-04-12T21:05:33.867Z,10.00
2023-04-12T21:08:00.694Z,10.00
2023-04-12T21:10:28.242Z,10.00
2023-04-12T21:12:55.985Z,10.00
2023-04-12T21:15:22.545Z,10.00
2023-04-12T21:17:50.690Z,10.10
2023-04-12T21:20:17.307Z,10.00
2023-04-12T21:22:46.468Z,9.90
2023-04-12T21:25:16.544Z,9.80
2023-04-12T21:27:43.804Z,9.90
2023-04-12T21:30:14.305Z,9.80
2023-04-12T21:32:42.222Z,9.80
2023-04-12T21:35:08.911Z,9.80
2023-04-12T21:37:39.480Z,9.90
2023-04-12T21:40:10.305Z,9.80
2023-04-12T21:42:37.866Z,9.90
2023-04-12T21:45:05.854Z,9.90
2023-04-12T21:47:36.062Z,9.90
2023-04-12T21:50:02.976Z,9.90
2023-04-12T21:52:29.619Z,10.00
2023-04-12T21:54:56.199Z,9.90
2023-04-12T21:57:22.832Z,9.80
2023-04-12T21:59:49.590Z,9.80
2023-04-12T22:02:16.291Z,9.90
2023-04-12T22:04:44.853Z,9.90
2023-04-12T22:07:13.098Z,9.90
2023-04-12T22:09:40.285Z,9.90
2023-04-12T22:12:10.023Z,9.90
2023-04-12T22:14:36.902Z,9.80
2023-04-12T22:17:04.317Z,9.80
2023-04-12T22:19:33.227Z,9.80
2023-04-12T22:21:59.742Z,9.80
2023-04-12T22:24:26.362Z,9.80
2023-04-12T22:26:56.279Z,9.90
2023-04-12T22:29:27.635Z,9.90
2023-04-12T22:31:55.576Z,9.80
2023-04-12T22:34:22.217Z,9.90
2023-04-12T22:36:52.035Z,9.80
2023-04-12T22:39:19.874Z,9.90
2023-04-12T22:41:49.274Z,9.90
2023-04-12T22:44:17.370Z,9.90
2023-04-12T22:46:50.189Z,10.00
2023-04-12T22:49:18.425Z,10.00
2023-04-12T22:51:45.485Z,9.90
2023-04-12T22:54:12.487Z,9.90
2023-04-12T22:56:46.996Z,9.90
2023-04-12T22:59:15.395Z,9.80
2023-04-12T23:01:42.585Z,9.70
2023-04-12T23:04:12.499Z,9.60
2023-04-12T23:06:41.665Z,9.70
2023-04-12T23:09:10.324Z,9.80
2023-04-12T23:11:39.913Z,9.90
2023-04-12T23:14:07.772Z,10.00
2023-04-12T23:16:35.523Z,9.80
2023-04-12T23:19:06.539Z,9.70
2023-04-12T23:21:36.301Z,9.70
2023-04-12T23:24:03.079Z,9.60
2023-04-12T23:26:30.608Z,9.50
2023-04-12T23:28:57.356Z,9.40
2023-04-12T23:31:23.961Z,9.40
2023-04-12T23:33:50.696Z,9.40
2023-04-12T23:36:17.265Z,9.30
2023-04-12T23:38:44.498Z,9.30
2023-04-12T23:41:12.936Z,9.30
2023-04-12T23:43:40.784Z,9.30
2023-04-12T23:46:07.358Z,9.10
2023-04-12T23:48:35.121Z,9.10
2023-04-12T23:51:03.839Z,9.10
2023-04-12T23:53:30.520Z,9.20
2023-04-12T23:55:59.435Z,9.10
2023-04-12T23:58:26.398Z,9.10
